Time;durP1;ratioP1;P1;durP2;ratioP2;P2;SDS_P1;SDS_P2;PMS_P1;PMS_P2;Temp;Humidity;BMP_temperature;BMP_pressure;BME280_temperature;BME280_humidity;BME280_pressure;Samples;Min_cycle;Max_cycle;Signal;HPM_P1;HPM_P2
2022/08/05 00:02:04;;;;;;;46.10;26.00;;;;;;;23.75;71.76;99112.52;25035;1314;3026468;-65
2022/08/05 00:04:33;;;;;;;48.10;28.50;;;;;;;23.54;72.12;99109.20;25082;1314;3054090;-69
2022/08/05 00:07:02;;;;;;;58.40;27.70;;;;;;;23.32;73.36;99115.14;25019;1316;3026604;-69
2022/08/05 00:09:31;;;;;;;39.70;21.10;;;;;;;23.05;75.31;99115.29;25073;1314;3054457;-64
2022/08/05 00:12:01;;;;;;;43.70;23.70;;;;;;;23.48;74.35;99114.39;25036;1314;3026509;-65
2022/08/05 00:14:31;;;;;;;41.50;24.10;;;;;;;23.89;72.70;99110.29;25059;1315;3049176;-66
2022/08/05 00:17:00;;;;;;;49.40;27.80;;;;;;;23.87;72.40;99115.63;25011;1314;3026722;-67
2022/08/05 00:19:29;;;;;;;47.50;28.20;;;;;;;23.68;72.72;99110.52;25062;1315;3026544;-64
2022/08/05 00:21:58;;;;;;;50.80;30.10;;;;;;;23.38;73.70;99111.58;25055;1314;3051512;-63
2022/08/05 00:24:27;;;;;;;39.00;21.40;;;;;;;23.08;75.31;99111.09;25083;1314;3026574;-63
2022/08/05 00:26:56;;;;;;;53.20;26.20;;;;;;;23.46;74.38;99111.04;25009;1315;3069528;-66
2022/08/05 00:29:25;;;;;;;44.50;26.40;;;;;;;23.83;73.06;99108.73;25106;1315;3026334;-64
2022/08/05 00:31:54;;;;;;;47.80;26.70;;;;;;;23.84;72.78;99111.48;25018;1314;3053316;-66
2022/08/05 00:34:23;;;;;;;54.60;27.80;;;;;;;23.63;72.96;99113.65;25086;1315;3026617;-67
2022/08/05 00:36:52;;;;;;;55.40;30.90;;;;;;;23.43;73.48;99112.61;25047;1314;3055528;-63
2022/08/05 00:39:21;;;;;;;58.00;29.20;;;;;;;23.18;74.01;99109.86;25086;1315;3026799;-67
2022/08/05 00:41:50;;;;;;;41.00;22.10;;;;;;;22.98;74.74;99104.70;25004;1315;3051836;-69
2022/08/05 00:44:19;;;;;;;44.10;25.60;;;;;;;23.37;74.36;99104.39;25106;1315;3026449;-69
2022/08/05 00:46:48;;;;;;;47.60;24.70;;;;;;;23.75;73.10;99108.36;25021;1315;3058973;-63
2022/08/05 00:49:18;;;;;;;52.80;25.80;;;;;;;23.76;72.65;99109.52;25058;1315;3028502;-64
2022/08/05 00:51:47;;;;;;;54.30;26.20;;;;;;;23.50;73.15;99114.59;25115;1315;3051981;-67
2022/08/05 00:54:16;;;;;;;52.90;28.80;;;;;;;23.27;73.81;99113.86;25047;1315;3026531;-65
2022/08/05 00:56:45;;;;;;;46.70;25.50;;;;;;;23.06;74.41;99113.85;25060;1315;3054578;-67
2022/08/05 00:59:14;;;;;;;39.10;20.40;;;;;;;22.86;75.14;99111.69;25077;1315;3028318;-62
2022/08/05 01:01:44;;;;;;;46.90;24.70;;;;;;;23.19;74.96;99110.48;25060;1315;3053163;-64
2022/08/05 10:49:25;;;;;;;11.00;4.90;;;;;;;25.64;56.21;99176.28;25076;1316;3049171;-65
2022/08/05 10:51:59;;;;;;;10.30;4.90;;;;;;;25.44;56.94;99180.02;25089;1315;3027459;-65
2022/08/05 10:54:46;;;;;;;14.90;4.30;;;;;;;25.17;58.40;99180.39;25055;1315;3055772;-65
2022/08/05 10:57:24;;;;;;;13.00;5.30;;;;;;;24.99;58.95;99185.86;25062;1315;3057027;-64
2022/08/05 11:00:11;;;;;;;9.10;5.20;;;;;;;24.72;59.04;99195.97;25104;1315;3052638;-64
2022/08/05 11:03:02;;;;;;;9.50;5.40;;;;;;;24.56;59.76;99205.07;25044;1316;3053355;-66
2022/08/05 11:05:32;;;;;;;9.20;5.90;;;;;;;24.45;61.00;99192.46;25103;1316;3053870;-63
2022/08/05 11:08:03;;;;;;;14.20;7.50;;;;;;;24.40;61.72;99182.38;25136;1316;3027058;-63
2022/08/05 11:10:35;;;;;;;14.20;8.00;;;;;;;24.34;62.69;99178.55;25061;1316;3026541;-65
2022/08/05 11:13:05;;;;;;;13.30;8.20;;;;;;;24.14;64.55;99164.56;25082;1316;3027448;-67
2022/08/05 11:15:42;;;;;;;13.00;8.90;;;;;;;24.08;64.57;99156.25;25084;1316;3027067;-64
2022/08/05 11:18:23;;;;;;;19.50;9.50;;;;;;;24.10;64.91;99147.14;25108;1315;3058220;-65
2022/08/05 11:20:52;;;;;;;16.30;8.90;;;;;;;24.10;65.72;99146.54;25054;1315;3052661;-64
2022/08/05 11:23:34;;;;;;;14.00;9.00;;;;;;;24.06;65.62;99147.77;25157;1315;3026403;-65
2022/08/05 11:26:18;;;;;;;14.80;8.80;;;;;;;24.10;64.67;99147.05;25095;1315;3059523;-66
2022/08/05 11:28:51;;;;;;;21.10;8.40;;;;;;;24.04;65.60;99133.16;25095;1315;3050250;-64
2022/08/05 11:32:42;;;;;;;17.80;8.30;;;;;;;24.25;65.32;99128.94;31816;1312;3026116;-67
2022/08/05 11:35:49;;;;;;;16.00;9.70;;;;;;;24.89;63.11;99131.45;25125;1312;3026354;-68
2022/08/05 11:38:18;;;;;;;18.00;8.30;;;;;;;24.97;62.70;99140.46;25093;1312;3055172;-65
2022/08/05 11:41:03;;;;;;;16.80;8.40;;;;;;;24.81;62.96;99142.88;25187;1312;3028219;-66
2022/08/05 11:43:32;;;;;;;16.00;9.30;;;;;;;24.68;63.44;99149.09;25117;1312;3055416;-63
2022/08/05 11:46:01;;;;;;;17.00;8.90;;;;;;;24.59;64.13;99145.02;24473;1312;4274497;-64
2022/08/05 11:48:31;;;;;;;15.30;9.60;;;;;;;24.51;64.40;99154.03;25125;1309;3027017;-65
2022/08/05 11:51:00;;;;;;;25.10;11.90;;;;;;;24.50;64.57;99165.65;25116;1312;3054329;-68
2022/08/05 11:53:29;;;;;;;15.50;9.80;;;;;;;24.44;65.57;99174.90;25195;1309;3026944;-63
2022/08/05 11:56:00;;;;;;;14.30;7.80;;;;;;;24.50;65.86;99181.52;25114;1309;3048369;-66
2022/08/05 11:58:30;;;;;;;15.50;7.90;;;;;;;25.15;64.36;99194.14;25165;1309;3027103;-66
2022/08/05 12:01:05;;;;;;;13.50;8.40;;;;;;;25.66;62.43;99198.07;25129;1308;3026275;-65
2022/08/05 12:03:48;;;;;;;13.90;8.70;;;;;;;25.80;61.93;99205.36;25125;1309;3057991;-65
2022/08/05 12:06:19;;;;;;;19.90;14.70;;;;;;;25.80;61.39;99202.50;25195;1309;3050344;-64
2022/08/05 12:08:50;;;;;;;18.10;10.10;;;;;;;25.80;60.12;99205.06;25152;1312;3028294;-63
2022/08/05 12:11:21;;;;;;;14.60;9.80;;;;;;;25.80;59.92;99202.50;25207;1309;3026900;-63
2022/08/05 12:13:53;;;;;;;14.30;9.90;;;;;;;25.77;59.86;99212.63;25218;1309;3028765;-64
2022/08/05 12:16:23;;;;;;;16.40;9.70;;;;;;;25.76;60.23;99224.79;25158;1309;3026921;-63
2022/08/05 12:18:52;;;;;;;15.60;10.20;;;;;;;25.74;60.05;99232.92;25145;1309;3026959;-62
2022/08/05 12:21:29;;;;;;;19.30;10.50;;;;;;;25.67;60.77;99227.51;25158;1309;3028489;-64
2022/08/05 12:24:05;;;;;;;20.20;10.50;;;;;;;25.56;61.04;99219.08;25128;1309;3059246;-61
2022/08/05 12:26:35;;;;;;;17.20;10.90;;;;;;;25.40;62.11;99217.52;25291;1309;3049861;-61
2022/08/05 12:29:06;;;;;;;17.50;10.80;;;;;;;25.28;63.06;99223.77;25377;1309;3026293;-62
2022/08/05 12:31:35;;;;;;;19.20;9.90;;;;;;;25.14;63.24;99224.73;25399;1309;3026888;-64
2022/08/05 12:34:05;;;;;;;19.40;11.00;;;;;;;25.02;62.74;99224.75;25156;1309;3027297;-63
2022/08/05 12:36:35;;;;;;;19.90;10.70;;;;;;;24.90;64.66;99225.76;25198;1309;3053396;-65
2022/08/05 12:39:05;;;;;;;17.90;10.60;;;;;;;24.79;64.91;99228.73;25115;1310;3027336;-65
2022/08/05 12:41:36;;;;;;;15.30;10.40;;;;;;;24.72;65.31;99236.86;25103;1309;3028893;-67
2022/08/05 12:44:07;;;;;;;13.80;7.80;;;;;;;24.63;66.22;99237.78;25123;1309;3026353;-62
2022/08/05 12:46:38;;;;;;;16.40;9.20;;;;;;;25.13;64.95;99236.83;25145;1309;3030102;-64
2022/08/05 12:49:10;;;;;;;15.70;9.90;;;;;;;25.47;64.24;99236.52;25177;1309;3026557;-62
2022/08/05 12:51:50;;;;;;;14.90;9.70;;;;;;;25.29;62.59;99241.27;25198;1309;3028200;-62
2022/08/05 12:54:27;;;;;;;19.70;10.30;;;;;;;25.19;64.54;99241.84;25148;1312;3052799;-62
2022/08/05 12:56:58;;;;;;;17.70;11.50;;;;;;;24.96;66.83;99244.65;25107;1312;3055319;-64
2022/08/05 12:59:28;;;;;;;23.50;11.90;;;;;;;24.81;67.09;99238.31;25169;1312;3027176;-64
2022/08/05 13:01:59;;;;;;;22.20;12.50;;;;;;;24.68;66.95;99230.58;25072;1312;3027114;-66
2022/08/05 13:04:32;;;;;;;19.50;12.90;;;;;;;24.60;66.15;99226.21;25142;1312;3027047;-66
2022/08/05 13:07:03;;;;;;;18.80;12.40;;;;;;;24.56;67.20;99220.91;25156;1311;3026787;-61
2022/08/05 13:09:33;;;;;;;13.60;9.00;;;;;;;24.53;67.78;99213.29;25145;1312;3026651;-65
2022/08/05 13:12:06;;;;;;;18.70;11.30;;;;;;;25.02;65.78;99213.70;25137;1312;3026626;-62
2022/08/05 13:14:52;;;;;;;20.60;12.70;;;;;;;25.40;64.76;99218.34;25102;1312;3051304;-63
2022/08/05 13:17:25;;;;;;;19.90;12.30;;;;;;;25.32;65.73;99225.14;25141;1312;3055855;-65
2022/08/05 13:20:11;;;;;;;16.90;12.90;;;;;;;25.23;65.42;99225.71;25129;1312;3053430;-64
2022/08/05 13:22:44;;;;;;;25.40;14.00;;;;;;;25.04;64.68;99233.41;25121;1312;3071122;-67
2022/08/05 13:25:14;;;;;;;22.80;14.70;;;;;;;24.88;66.36;99235.08;25122;1312;3051374;-66
2022/08/05 13:27:47;;;;;;;23.60;15.40;;;;;;;24.75;67.31;99238.80;25147;1312;3026699;-66
2022/08/05 13:30:18;;;;;;;44.00;21.60;;;;;;;24.67;67.64;99239.09;25143;1312;3026640;-63
2022/08/05 13:32:47;;;;;;;34.30;18.80;;;;;;;24.65;68.26;99251.73;25141;1312;3027085;-64
2022/08/05 13:35:17;;;;;;;29.40;16.10;;;;;;;25.21;67.82;99245.27;25178;1312;3029698;-63
2022/08/05 13:37:47;;;;;;;30.80;16.50;;;;;;;25.66;66.38;99235.61;25117;1312;3052683;-65
2022/08/05 13:40:17;;;;;;;29.30;16.80;;;;;;;25.65;66.65;99229.44;25137;1312;3026938;-66
2022/08/05 13:42:46;;;;;;;29.20;17.20;;;;;;;25.55;67.96;99220.97;25142;1312;3026559;-66
2022/08/05 13:45:18;;;;;;;31.70;18.10;;;;;;;25.42;68.26;99208.23;25171;1312;3026479;-62
2022/08/05 13:47:47;;;;;;;30.00;17.80;;;;;;;25.31;68.66;99202.72;25137;1312;3058343;-63
2022/08/05 13:50:16;;;;;;;30.10;18.10;;;;;;;25.18;68.35;99195.65;25150;1312;3026630;-65
2022/08/05 13:52:44;;;;;;;21.50;12.40;;;;;;;25.08;69.54;99194.04;25135;1311;3055240;-60
2022/08/05 13:55:13;;;;;;;27.60;15.80;;;;;;;25.59;68.22;99191.11;25174;1312;3026909;-67
2022/08/05 13:57:42;;;;;;;24.80;15.30;;;;;;;26.03;65.88;99192.65;25187;1312;3054285;-66
2022/08/05 14:00:12;;;;;;;30.10;15.40;;;;;;;26.11;65.49;99206.11;25162;1312;3026554;-64
2022/08/05 14:02:41;;;;;;;31.50;16.50;;;;;;;26.02;66.54;99215.30;25176;1312;3051704;-63
2022/08/05 14:05:10;;;;;;;37.90;19.70;;;;;;;25.87;65.88;99216.77;25159;1312;3026066;-65
2022/08/05 14:07:42;;;;;;;31.40;18.90;;;;;;;25.70;66.81;99227.44;25171;1312;3069781;-65
2022/08/05 14:10:13;;;;;;;28.80;18.00;;;;;;;25.58;67.19;99244.41;25155;1311;3027492;-62
2022/08/05 14:12:43;;;;;;;27.80;16.10;;;;;;;25.38;68.10;99296.83;25167;1309;3028064;-61
2022/08/05 14:15:12;;;;;;;23.10;13.00;;;;;;;25.09;69.55;99311.02;25162;1310;3026928;-65
2022/08/05 14:17:41;;;;;;;22.60;13.00;;;;;;;25.38;68.90;99316.19;25139;1309;3026441;-65
2022/08/05 14:20:10;;;;;;;17.20;11.90;;;;;;;25.53;65.95;99315.34;25187;1312;3026502;-66
2022/08/05 14:22:42;;;;;;;16.40;10.80;;;;;;;25.40;64.02;99317.36;25144;1312;3052685;-64
2022/08/05 14:25:12;;;;;;;15.50;10.30;;;;;;;24.96;62.23;99312.88;25125;1312;3027135;-67
2022/08/05 14:27:41;;;;;;;22.10;10.60;;;;;;;24.75;62.20;99325.74;25173;1312;3026649;-65
2022/08/05 14:30:11;;;;;;;20.00;11.80;;;;;;;24.56;61.90;99332.75;25147;1312;3026887;-67
2022/08/05 14:32:41;;;;;;;17.10;11.20;;;;;;;24.31;62.78;99336.89;25166;1309;3057074;-63
2022/08/05 14:35:13;;;;;;;15.00;11.10;;;;;;;24.12;63.00;99331.16;25096;1312;3026586;-64
2022/08/05 14:37:43;;;;;;;23.80;12.30;;;;;;;23.96;63.18;99331.27;25165;1312;3054760;-65
2022/08/05 14:40:12;;;;;;;20.10;12.10;;;;;;;23.77;64.08;99342.05;25168;1312;3026530;-67
2022/08/05 14:42:41;;;;;;;18.90;12.80;;;;;;;23.68;64.44;99347.73;25143;1312;3054209;-67
2022/08/05 14:45:10;;;;;;;16.30;11.80;;;;;;;23.54;64.80;99351.35;25127;1312;3026925;-64
2022/08/05 14:47:40;;;;;;;20.90;13.00;;;;;;;23.39;64.33;99347.23;25141;1312;3048723;-64
2022/08/05 14:50:09;;;;;;;22.60;11.70;;;;;;;23.31;64.62;99350.63;25222;1311;3026381;-65
2022/08/05 14:52:39;;;;;;;18.60;12.20;;;;;;;23.22;65.86;99342.55;25167;1312;3026886;-61
2022/08/05 14:55:10;;;;;;;16.00;6.50;;;;;;;23.13;67.47;99345.34;25127;1312;3026524;-63
2022/08/05 14:57:39;;;;;;;17.00;8.10;;;;;;;23.69;66.40;99328.33;25170;1312;3052317;-65
2022/08/05 15:00:09;;;;;;;15.80;9.20;;;;;;;24.00;65.47;99315.80;25134;1310;3026610;-66
2022/08/05 15:02:38;;;;;;;16.30;9.80;;;;;;;24.08;65.15;99309.98;25111;1312;3050836;-65
2022/08/05 15:05:07;;;;;;;20.50;12.20;;;;;;;23.93;65.98;99300.88;25094;1312;3029680;-66
2022/08/05 15:07:37;;;;;;;32.30;20.30;;;;;;;23.72;67.17;99299.67;25193;1312;3070305;-65
2022/08/05 15:10:07;;;;;;;30.60;19.60;;;;;;;23.61;66.73;99292.74;25151;1312;3026409;-63
2022/08/05 15:12:37;;;;;;;19.90;14.60;;;;;;;23.47;65.58;99290.29;25081;1312;3026690;-64
2022/08/05 15:15:07;;;;;;;27.40;14.90;;;;;;;23.36;65.98;99287.51;25130;1312;3027324;-64
2022/08/05 15:17:36;;;;;;;26.10;14.60;;;;;;;23.20;67.07;99285.07;25095;1312;3027621;-66
2022/08/05 15:20:09;;;;;;;24.80;13.30;;;;;;;23.14;67.31;99282.26;25097;1312;3028931;-66
2022/08/05 15:22:38;;;;;;;19.00;8.50;;;;;;;23.25;66.98;99274.68;25125;1311;3055736;-69
2022/08/05 15:25:08;;;;;;;20.20;9.30;;;;;;;23.82;65.57;99266.58;25173;1312;3026501;-65
2022/08/05 15:27:38;;;;;;;18.10;9.20;;;;;;;24.24;63.27;99260.98;25118;1311;3051614;-66
2022/08/05 15:30:09;;;;;;;12.70;9.50;;;;;;;24.19;62.84;99257.11;25163;1312;3028422;-66
2022/08/05 15:32:38;;;;;;;16.60;10.00;;;;;;;24.01;63.46;99254.98;25128;1312;3053784;-65
2022/08/05 15:35:08;;;;;;;15.90;10.00;;;;;;;23.79;65.20;99258.31;25197;1312;3026591;-66
2022/08/05 15:37:37;;;;;;;16.80;10.20;;;;;;;23.63;64.97;99249.63;25111;1312;3070979;-64
2022/08/05 15:40:07;;;;;;;16.00;9.90;;;;;;;23.48;65.35;99252.52;25158;1312;3026282;-67
2022/08/05 15:42:36;;;;;;;17.30;10.40;;;;;;;23.43;65.61;99242.89;25129;1312;3051313;-66
2022/08/05 15:45:05;;;;;;;20.40;10.50;;;;;;;23.29;66.07;99235.58;25110;1312;3026761;-68
2022/08/05 15:47:35;;;;;;;18.90;7.30;;;;;;;23.31;67.09;99231.67;25126;1312;3055178;-65
2022/08/05 15:50:05;;;;;;;13.10;7.50;;;;;;;23.83;65.79;99221.52;25132;1312;3026342;-65
2022/08/05 15:52:36;;;;;;;12.60;8.80;;;;;;;24.25;64.43;99218.82;25093;1315;3050224;-68
2022/08/05 15:55:06;;;;;;;16.00;8.20;;;;;;;24.30;64.49;99219.80;25147;1309;3026921;-64
2022/08/05 15:57:35;;;;;;;15.40;9.40;;;;;;;24.17;64.75;99219.06;25159;1310;3026637;-66
2022/08/05 16:00:05;;;;;;;14.10;9.10;;;;;;;23.99;65.61;99219.42;25138;1309;3026770;-65
2022/08/05 16:02:35;;;;;;;17.00;9.70;;;;;;;23.87;66.59;99219.31;25154;1309;3053409;-65
2022/08/05 16:05:04;;;;;;;20.10;10.80;;;;;;;23.65;66.06;99220.31;25146;1310;3027325;-65
2022/08/05 16:07:33;;;;;;;23.80;10.00;;;;;;;23.53;64.72;99227.27;25136;1309;3027603;-62
2022/08/05 16:10:03;;;;;;;17.40;10.00;;;;;;;23.65;65.18;99221.15;25186;1309;3026813;-62
2022/08/05 16:12:32;;;;;;;18.50;9.70;;;;;;;23.87;64.72;99215.69;25130;1309;3053152;-63
2022/08/05 16:15:01;;;;;;;17.80;8.50;;;;;;;23.97;63.24;99207.58;25176;1309;3028279;-62
2022/08/05 16:17:30;;;;;;;19.00;8.80;;;;;;;23.95;63.19;99212.80;25124;1309;3054743;-62
2022/08/05 16:19:59;;;;;;;15.30;8.60;;;;;;;23.80;64.48;99215.50;25159;1309;3026467;-68
2022/08/05 16:22:28;;;;;;;21.80;8.80;;;;;;;23.61;64.82;99213.08;25097;1309;3051788;-64
2022/08/05 16:24:57;;;;;;;12.80;8.60;;;;;;;23.45;65.63;99222.42;25144;1309;3026489;-61
2022/08/05 16:27:27;;;;;;;15.00;6.50;;;;;;;23.33;66.35;99229.27;25127;1309;3057343;-64
2022/08/05 16:29:56;;;;;;;15.10;7.00;;;;;;;23.72;65.93;99239.27;25117;1312;3026606;-66
2022/08/05 16:32:25;;;;;;;13.60;7.80;;;;;;;24.05;65.44;99240.95;25126;1309;3054669;-63
2022/08/05 16:34:53;;;;;;;15.40;8.60;;;;;;;23.97;65.46;99243.00;25196;1309;3026294;-63
2022/08/05 16:37:23;;;;;;;19.60;9.70;;;;;;;23.80;66.02;99246.05;25151;1309;3053685;-63
2022/08/05 16:39:52;;;;;;;16.50;9.30;;;;;;;23.59;66.99;99248.56;25284;1309;3026561;-65
2022/08/05 16:42:21;;;;;;;15.20;9.90;;;;;;;23.38;67.03;99246.33;25355;1309;3050355;-60
2022/08/05 16:44:50;;;;;;;16.70;9.00;;;;;;;23.21;67.62;99246.16;25404;1312;3026739;-62
2022/08/05 16:47:19;;;;;;;20.00;10.00;;;;;;;23.03;68.41;99251.27;25257;1309;3068689;-66
2022/08/05 16:49:48;;;;;;;18.90;9.90;;;;;;;22.87;69.18;99252.45;25176;1309;3028708;-63
2022/08/05 16:52:17;;;;;;;13.70;6.10;;;;;;;22.77;69.32;99252.48;25162;1309;3051633;-64
2022/08/05 16:54:46;;;;;;;14.80;7.30;;;;;;;23.26;67.76;99245.64;25108;1312;3028879;-64
2022/08/05 16:57:15;;;;;;;12.30;8.30;;;;;;;23.70;65.94;99251.01;25092;1312;3055084;-64
2022/08/05 16:59:44;;;;;;;18.70;8.90;;;;;;;23.70;65.63;99250.66;25112;1312;3026294;-62
2022/08/05 17:02:13;;;;;;;25.50;8.90;;;;;;;23.54;66.00;99251.09;25152;1312;3026482;-65
2022/08/05 17:04:42;;;;;;;18.10;9.60;;;;;;;23.31;67.08;99251.23;25127;1312;3052603;-67
2022/08/05 17:07:12;;;;;;;15.80;7.50;;;;;;;23.09;67.85;99257.59;25113;1312;3026311;-63
2022/08/05 17:09:42;;;;;;;13.80;8.50;;;;;;;22.90;67.02;99261.14;25161;1312;3027416;-67
2022/08/05 17:12:11;;;;;;;21.10;9.70;;;;;;;22.73;68.21;99265.66;25107;1312;3026936;-69
2022/08/05 17:14:39;;;;;;;17.60;7.70;;;;;;;22.58;69.74;99266.25;25163;1312;3053771;-68
2022/08/05 17:17:08;;;;;;;17.40;8.20;;;;;;;23.01;68.97;99270.06;25092;1312;3026720;-69
2022/08/05 17:19:37;;;;;;;17.20;10.00;;;;;;;23.45;67.52;99272.48;25162;1312;3052403;-63
2022/08/05 17:22:06;;;;;;;16.60;9.40;;;;;;;23.47;66.91;99275.98;25104;1312;3026319;-66
2022/08/05 17:24:35;;;;;;;21.10;8.90;;;;;;;23.28;66.99;99279.36;25133;1312;3052052;-66
2022/08/05 17:27:04;;;;;;;17.60;8.60;;;;;;;23.04;67.39;99289.90;25099;1311;3026689;-67
2022/08/05 17:29:33;;;;;;;20.10;8.90;;;;;;;22.82;67.81;99292.63;25163;1312;3058554;-70
2022/08/05 17:32:03;;;;;;;16.90;9.90;;;;;;;22.64;68.32;99295.69;25099;1312;3026696;-65
2022/08/05 17:34:33;;;;;;;17.10;9.50;;;;;;;22.47;69.15;99298.77;25236;1312;3051968;-68
2022/08/05 17:37:02;;;;;;;13.70;6.50;;;;;;;22.36;69.99;99300.30;25151;1312;3026356;-67
2022/08/05 17:39:33;;;;;;;14.00;7.50;;;;;;;22.85;69.12;99303.20;25181;1311;3051159;-65
2022/08/05 17:42:02;;;;;;;13.60;7.80;;;;;;;23.24;67.51;99305.98;25185;1312;3026600;-64
2022/08/05 17:44:31;;;;;;;14.50;8.20;;;;;;;23.28;67.14;99308.64;25138;1312;3052748;-65
2022/08/05 17:47:00;;;;;;;12.80;8.20;;;;;;;23.11;67.99;99308.58;25123;1312;3027376;-64
2022/08/05 17:49:29;;;;;;;15.70;8.60;;;;;;;22.88;68.59;99304.80;25156;1312;3026759;-63
2022/08/05 17:51:58;;;;;;;20.30;9.70;;;;;;;22.66;69.54;99303.34;25165;1310;3049187;-63
2022/08/05 17:54:27;;;;;;;15.20;9.70;;;;;;;22.47;70.02;99309.10;25155;1309;3026475;-62
2022/08/05 17:56:56;;;;;;;13.60;6.50;;;;;;;22.34;70.31;99309.30;25113;1312;3070213;-60
2022/08/05 17:59:26;;;;;;;16.00;7.80;;;;;;;22.76;69.22;99308.65;25168;1312;3026545;-63
2022/08/05 18:01:55;;;;;;;15.60;8.50;;;;;;;23.22;67.98;99313.21;25157;1312;3051491;-65
2022/08/05 18:04:24;;;;;;;16.00;8.90;;;;;;;23.25;67.28;99311.85;25111;1310;3026457;-63
2022/08/05 18:06:53;;;;;;;17.30;9.20;;;;;;;23.09;67.41;99315.66;25194;1310;3052273;-65
2022/08/05 18:09:22;;;;;;;15.00;9.40;;;;;;;22.83;68.55;99315.91;25134;1312;3026473;-62
2022/08/05 18:11:51;;;;;;;19.00;9.70;;;;;;;22.66;68.52;99314.66;25148;1310;3049018;-63
2022/08/05 18:14:20;;;;;;;15.50;9.70;;;;;;;22.47;69.58;99316.84;25149;1310;3027181;-63
2022/08/05 18:16:50;;;;;;;12.30;7.00;;;;;;;22.35;70.23;99316.46;25087;1312;3056767;-61
2022/08/05 18:19:20;;;;;;;16.90;8.20;;;;;;;22.79;69.38;99308.70;25164;1310;3026675;-63
2022/08/05 18:21:49;;;;;;;19.50;9.10;;;;;;;23.19;67.93;99303.59;25143;1312;3055011;-63
2022/08/05 18:24:18;;;;;;;15.40;9.50;;;;;;;23.17;67.75;99299.91;25146;1311;3026408;-65
2022/08/05 18:26:47;;;;;;;18.30;10.40;;;;;;;23.04;68.10;99296.52;25151;1309;3026098;-63
2022/08/05 18:29:16;;;;;;;19.00;10.10;;;;;;;22.86;68.49;99301.14;25179;1309;3051759;-61
2022/08/05 18:31:45;;;;;;;20.30;10.40;;;;;;;22.66;69.04;99299.23;25129;1310;3026614;-62
2022/08/05 18:34:14;;;;;;;19.50;11.00;;;;;;;22.46;69.95;99304.92;25185;1312;3054719;-60
2022/08/05 18:36:43;;;;;;;16.80;7.40;;;;;;;22.31;70.60;99302.48;25205;1310;3029488;-63
2022/08/05 18:39:12;;;;;;;17.40;8.00;;;;;;;22.74;69.99;99298.35;25190;1310;3051078;-65
2022/08/05 18:41:41;;;;;;;17.60;9.30;;;;;;;23.15;68.53;99299.09;25117;1312;3026745;-65
2022/08/05 18:44:10;;;;;;;18.70;10.20;;;;;;;23.14;68.32;99297.18;25108;1312;3068325;-65
2022/08/05 18:46:39;;;;;;;20.40;11.00;;;;;;;23.02;68.85;99297.48;25190;1312;3026543;-63
2022/08/05 18:54:44;;;;;;;22.80;11.40;;;;;;;22.49;70.56;99313.71;25148;1312;3048965;-62
2022/08/05 18:57:13;;;;;;;21.30;8.70;;;;;;;22.37;70.93;99320.54;25203;1312;3026823;-64
2022/08/05 18:59:42;;;;;;;24.40;10.00;;;;;;;22.79;70.18;99322.55;25165;1311;3068660;-65
2022/08/05 19:02:11;;;;;;;20.70;11.60;;;;;;;23.19;68.93;99319.30;25189;1310;3026915;-63
2022/08/05 19:04:41;;;;;;;19.00;12.70;;;;;;;23.17;68.62;99327.41;25118;1312;3051404;-61
2022/08/05 19:07:10;;;;;;;20.50;12.80;;;;;;;23.03;69.05;99335.11;25146;1312;3026620;-65
2022/08/05 19:09:39;;;;;;;25.50;14.40;;;;;;;22.79;69.61;99334.55;25146;1312;3026590;-64
2022/08/05 19:12:08;;;;;;;28.10;15.30;;;;;;;22.59;70.04;99332.54;25129;1312;3053866;-63
2022/08/05 19:14:39;;;;;;;28.60;16.40;;;;;;;22.41;70.97;99328.65;25126;1312;3026583;-62
2022/08/05 19:17:10;;;;;;;20.90;11.30;;;;;;;22.26;71.44;99322.96;25155;1312;3026148;-62
2022/08/05 19:19:42;;;;;;;25.80;15.00;;;;;;;22.76;70.96;99319.27;25134;1311;3026180;-62
2022/08/05 19:22:11;;;;;;;22.50;14.70;;;;;;;23.13;69.72;99321.60;25102;1312;3027094;-62
2022/08/05 19:24:40;;;;;;;29.70;17.30;;;;;;;23.15;69.16;99321.06;25181;1311;3027101;-62
2022/08/05 19:27:10;;;;;;;32.90;15.30;;;;;;;22.96;69.47;99317.48;25112;1312;3053307;-65
2022/08/05 19:29:39;;;;;;;29.20;18.00;;;;;;;22.74;70.02;99319.45;25104;1312;3026638;-62
2022/08/05 19:32:08;;;;;;;27.20;17.70;;;;;;;22.55;70.38;99318.36;25154;1312;3026443;-63
2022/08/05 19:34:37;;;;;;;27.50;17.10;;;;;;;22.40;71.05;99318.80;25126;1312;3054104;-60
2022/08/05 19:37:06;;;;;;;18.40;11.80;;;;;;;22.28;71.22;99319.91;25103;1312;3026163;-63
2022/08/05 19:39:37;;;;;;;25.70;13.20;;;;;;;22.77;70.45;99316.27;25098;1312;3031370;-61
2022/08/05 19:42:06;;;;;;;22.10;13.70;;;;;;;23.18;69.09;99317.16;25182;1312;3026563;-61
2022/08/05 19:44:36;;;;;;;23.10;14.90;;;;;;;23.17;68.76;99314.15;25194;1312;3026290;-65
2022/08/05 19:47:05;;;;;;;23.10;13.80;;;;;;;23.06;68.89;99311.55;25111;1312;3026825;-61
2022/08/05 19:49:34;;;;;;;27.70;16.90;;;;;;;22.87;69.08;99312.54;25129;1312;3051985;-68
2022/08/05 19:52:04;;;;;;;28.70;16.90;;;;;;;22.59;69.85;99313.70;25149;1312;3026241;-62
2022/08/05 19:54:33;;;;;;;28.80;16.30;;;;;;;22.39;70.70;99317.42;25114;1312;3059346;-62
2022/08/05 19:57:03;;;;;;;19.60;11.40;;;;;;;22.23;71.42;99312.61;25111;1312;3026484;-62
2022/08/05 19:59:32;;;;;;;27.10;13.20;;;;;;;22.72;70.78;99316.61;25189;1312;3026364;-63
2022/08/05 20:02:01;;;;;;;23.10;14.80;;;;;;;23.11;69.43;99313.27;25251;1309;3027506;-64
2022/08/05 20:04:31;;;;;;;29.90;17.60;;;;;;;23.07;69.30;99314.30;25067;1312;3026577;-62
2022/08/05 20:07:00;;;;;;;26.00;16.50;;;;;;;22.90;69.23;99312.22;25156;1309;3028070;-65
2022/08/05 20:09:29;;;;;;;28.10;17.60;;;;;;;22.67;69.84;99310.05;25163;1309;3053721;-63
2022/08/05 20:11:58;;;;;;;28.00;17.90;;;;;;;22.43;70.72;99314.73;25174;1309;3029947;-60
2022/08/05 20:14:27;;;;;;;37.60;18.20;;;;;;;22.23;71.64;99314.58;25159;1313;3055088;-64
2022/08/05 20:16:58;;;;;;;22.40;11.90;;;;;;;22.07;72.43;99308.67;25162;1309;3026665;-61
2022/08/05 20:19:27;;;;;;;23.70;13.20;;;;;;;22.57;71.44;99318.61;25172;1309;3049892;-64
2022/08/05 20:21:56;;;;;;;27.80;14.70;;;;;;;22.97;69.88;99313.59;25184;1307;3026532;-62
2022/08/05 20:24:27;;;;;;;26.00;15.50;;;;;;;22.96;69.71;99314.10;25137;1309;3026810;-59
2022/08/05 20:26:56;;;;;;;29.90;16.80;;;;;;;22.79;70.15;99313.70;25173;1309;3048876;-60
2022/08/05 20:29:25;;;;;;;27.30;17.90;;;;;;;22.62;70.42;99311.13;25105;1309;3030017;-66
2022/08/05 20:31:54;;;;;;;33.20;17.60;;;;;;;22.42;70.85;99307.88;25118;1309;3055794;-63
2022/08/05 20:34:24;;;;;;;32.90;17.80;;;;;;;22.22;71.68;99310.56;25160;1309;3029073;-66
2022/08/05 20:36:54;;;;;;;21.00;12.30;;;;;;;22.08;71.95;99311.95;25165;1309;3026660;-63
2022/08/05 20:39:22;;;;;;;26.10;13.60;;;;;;;22.56;71.73;99315.91;25139;1309;3026530;-65
2022/08/05 20:41:51;;;;;;;24.10;15.60;;;;;;;23.04;70.13;99312.10;25223;1309;3049103;-64
2022/08/05 20:44:20;;;;;;;21.60;15.00;;;;;;;23.06;69.45;99304.50;25116;1309;3026745;-66
2022/08/05 20:46:50;;;;;;;37.80;16.60;;;;;;;22.82;69.75;99302.88;25235;1309;3058309;-64
2022/08/05 20:49:19;;;;;;;29.30;17.90;;;;;;;22.58;70.33;99300.89;25129;1309;3026567;-62
2022/08/05 20:51:48;;;;;;;29.50;18.30;;;;;;;22.39;70.95;99305.84;25175;1309;3054530;-66
2022/08/05 20:54:16;;;;;;;32.10;17.30;;;;;;;22.22;71.43;99304.71;25117;1312;3026429;-65
2022/08/05 20:56:45;;;;;;;21.10;12.70;;;;;;;22.10;71.94;99306.57;25142;1312;3053758;-62
2022/08/05 20:59:14;;;;;;;23.20;13.60;;;;;;;22.62;70.91;99307.92;25103;1312;3026548;-65
2022/08/05 21:01:43;;;;;;;30.70;14.60;;;;;;;23.06;69.91;99299.99;25298;1312;3048430;-62
2022/08/05 21:04:12;;;;;;;26.00;15.60;;;;;;;23.05;69.17;99294.99;25474;1312;3026310;-62
2022/08/05 21:06:42;;;;;;;31.70;16.50;;;;;;;22.93;69.38;99293.52;25496;1312;3070330;-61
2022/08/05 21:09:12;;;;;;;26.30;16.30;;;;;;;22.71;69.97;99290.48;25207;1312;3026752;-62
2022/08/05 21:11:42;;;;;;;34.00;18.50;;;;;;;22.48;70.76;99294.58;25132;1315;3027273;-61